Terminal Aerodrome Forecast
Issued by NWS Cleveland, OH

Home | Current Version | Previous Version | Graphics & Text | Print | Product List | Glossary On
Versions: 1 2 3 4 5 6 7 8 9 10 11 12 13 14 15 16 17 18 19 20
000
FTUS41 KCLE 271900 AAA
TAFMFD
TAF AMD
KMFD 271913Z 2719/2818 31010KT 6SM -SN OVC030
     FM280100 01010KT P6SM OVC035
     FM280900 35010KT P6SM BKN030
     FM281500 35010KT P6SM SCT030 BKN035=

USA.gov is the U.S. government's official web portal to all federal, state and local government web resources and services.